createdAt,value
2017-06-04T00:00:46.896Z,17.78
2017-06-04T00:01:48.147Z,17.79
2017-06-04T00:02:49.393Z,17.78
2017-06-04T00:03:50.719Z,17.81
2017-06-04T00:04:51.960Z,17.84
2017-06-04T00:05:53.228Z,17.76
2017-06-04T00:06:54.518Z,17.85
2017-06-04T00:07:55.789Z,17.89
2017-06-04T00:08:57.016Z,17.79
2017-06-04T00:09:58.376Z,17.76
2017-06-04T00:10:59.776Z,17.87
2017-06-04T00:12:00.925Z,17.78
2017-06-04T00:13:02.188Z,17.87
2017-06-04T00:14:03.434Z,17.81
2017-06-04T00:15:04.682Z,17.85
2017-06-04T00:16:06.099Z,17.63
2017-06-04T00:17:07.230Z,17.7
2017-06-04T00:18:08.511Z,17.67
2017-06-04T00:19:09.746Z,17.63
2017-06-04T00:20:10.990Z,17.67
2017-06-04T00:21:12.229Z,17.59
2017-06-04T00:22:13.493Z,17.57
2017-06-04T00:23:14.721Z,17.64
2017-06-04T00:24:15.986Z,17.64
2017-06-04T00:25:17.204Z,17.59
2017-06-04T00:26:18.448Z,17.48
2017-06-04T00:27:19.686Z,17.48
2017-06-04T00:28:20.981Z,17.46
2017-06-04T00:29:22.227Z,17.5
2017-06-04T00:30:23.463Z,17.46
2017-06-04T00:31:24.706Z,17.47
2017-06-04T00:32:25.954Z,17.41
2017-06-04T00:33:27.243Z,17.38
2017-06-04T00:34:28.470Z,17.36
2017-06-04T00:35:29.736Z,17.29
2017-06-04T00:36:30.986Z,17.29
2017-06-04T00:37:32.258Z,17.32
2017-06-04T00:38:33.506Z,17.32
2017-06-04T00:39:34.768Z,17.25
2017-06-04T00:40:36.017Z,17.25
2017-06-04T00:41:37.253Z,17.3
2017-06-04T00:42:38.505Z,17.3
2017-06-04T00:43:39.753Z,17.3
2017-06-04T00:44:41.000Z,17.28
2017-06-04T00:45:42.259Z,17.2
2017-06-04T00:46:43.508Z,17.22
2017-06-04T00:47:44.871Z,17.28
2017-06-04T00:48:46.130Z,17.26
2017-06-04T00:49:47.378Z,17.26
2017-06-04T00:50:48.750Z,17.28
2017-06-04T00:51:49.971Z,17.23
2017-06-04T00:52:51.207Z,17.2
2017-06-04T00:53:52.481Z,17.29
2017-06-04T00:54:53.729Z,17.22
2017-06-04T00:55:55.017Z,17.2
2017-06-04T00:56:56.266Z,17.14
2017-06-04T00:57:57.523Z,17.18
2017-06-04T00:58:58.762Z,17.08
2017-06-04T00:59:59.993Z,17.1
2017-06-04T01:01:01.234Z,17.06
2017-06-04T01:02:02.581Z,17.14
2017-06-04T01:03:03.826Z,17.1
2017-06-04T01:04:05.071Z,17.06
2017-06-04T01:05:06.325Z,17.1
2017-06-04T01:06:07.576Z,17.03
2017-06-04T01:07:08.905Z,17.04
2017-06-04T01:08:10.170Z,17.08
2017-06-04T01:09:11.401Z,17.04
2017-06-04T01:10:12.643Z,17.11
2017-06-04T01:11:13.880Z,16.99
2017-06-04T01:12:15.135Z,17.11
2017-06-04T01:13:16.371Z,17.03
2017-06-04T01:14:17.649Z,17.04
2017-06-04T01:15:18.907Z,17.06
2017-06-04T01:16:20.149Z,17.07
2017-06-04T01:17:21.386Z,17.03
2017-06-04T01:18:22.669Z,17.06
2017-06-04T01:19:23.879Z,17
2017-06-04T01:20:25.175Z,17.03
2017-06-04T01:21:26.424Z,17
2017-06-04T01:22:27.676Z,16.98
2017-06-04T01:23:28.939Z,16.95
2017-06-04T01:24:30.166Z,16.95
2017-06-04T01:25:31.417Z,16.92
2017-06-04T01:26:32.668Z,16.89
2017-06-04T01:27:33.943Z,16.9
2017-06-04T01:28:35.199Z,16.83
2017-06-04T01:29:36.484Z,16.88
2017-06-04T01:30:37.716Z,16.85
2017-06-04T01:31:39.000Z,16.83
2017-06-04T01:32:40.252Z,16.78
2017-06-04T01:33:41.519Z,16.89
2017-06-04T01:34:42.797Z,16.83
2017-06-04T01:35:44.064Z,16.81
2017-06-04T01:36:45.298Z,16.74
2017-06-04T01:37:46.585Z,16.73
2017-06-04T01:38:47.831Z,16.73
2017-06-04T01:39:49.191Z,16.7
2017-06-04T01:40:50.447Z,16.58
2017-06-04T01:41:51.678Z,16.6
2017-06-04T01:42:52.913Z,16.49
2017-06-04T01:43:54.160Z,16.55
2017-06-04T01:44:55.409Z,16.48
2017-06-04T01:45:56.689Z,16.53
2017-06-04T01:46:58.177Z,16.5
2017-06-04T01:47:59.432Z,16.5
2017-06-04T01:49:00.655Z,16.48
2017-06-04T01:50:01.900Z,16.48
2017-06-04T01:51:03.159Z,16.48
2017-06-04T01:52:04.465Z,16.4
2017-06-04T01:53:05.701Z,16.41
2017-06-04T01:54:06.965Z,16.37
2017-06-04T01:55:08.225Z,16.44
2017-06-04T01:56:09.443Z,16.33
2017-06-04T01:57:10.789Z,16.35
2017-06-04T01:58:12.032Z,16.31
2017-06-04T01:59:13.301Z,16.25
2017-06-04T02:00:14.562Z,16.26
2017-06-04T02:01:15.799Z,16.3
2017-06-04T02:02:17.035Z,16.16
2017-06-04T02:03:18.285Z,16.16
2017-06-04T02:04:19.536Z,16.18
2017-06-04T02:05:20.775Z,16.18
2017-06-04T02:06:22.014Z,16.09
2017-06-04T02:07:23.245Z,16.15
2017-06-04T02:12:10.295Z,16.12
2017-06-04T02:13:11.532Z,16.06
2017-06-04T02:14:12.783Z,15.99
2017-06-04T02:15:14.193Z,15.99
2017-06-04T02:16:15.331Z,15.99
2017-06-04T02:17:16.661Z,15.89
2017-06-04T02:18:17.884Z,15.97
2017-06-04T02:19:19.136Z,15.93
2017-06-04T02:20:20.366Z,15.89
2017-06-04T02:21:21.756Z,15.96
2017-06-04T02:22:23.006Z,15.86
2017-06-04T02:23:24.363Z,15.94
2017-06-04T02:24:25.632Z,15.96
2017-06-04T02:25:27.093Z,15.89
2017-06-04T02:26:28.432Z,15.88
2017-06-04T02:27:29.681Z,15.89
2017-06-04T02:28:30.919Z,15.92
2017-06-04T02:29:32.159Z,15.97
2017-06-04T02:30:33.396Z,15.89
2017-06-04T02:31:34.735Z,15.94
2017-06-04T02:32:35.993Z,15.93
2017-06-04T02:33:37.227Z,15.89
2017-06-04T02:34:38.562Z,15.93
2017-06-04T02:35:39.781Z,15.92
2017-06-04T02:36:41.072Z,15.86
2017-06-04T02:37:42.405Z,15.84
2017-06-04T02:38:43.640Z,15.86
2017-06-04T02:39:45.005Z,15.88
2017-06-04T02:40:46.238Z,15.85
2017-06-04T02:41:47.475Z,15.82
2017-06-04T02:42:48.724Z,15.84
2017-06-04T02:43:50.037Z,15.85
2017-06-04T02:44:51.285Z,15.84
2017-06-04T02:45:52.577Z,15.86
2017-06-04T02:46:53.838Z,15.88
2017-06-04T02:47:55.077Z,15.84
2017-06-04T02:48:56.325Z,15.7
2017-06-04T02:49:57.571Z,15.74
2017-06-04T02:50:58.829Z,15.75
2017-06-04T02:52:00.186Z,15.68
2017-06-04T02:53:01.593Z,15.64
2017-06-04T02:54:02.725Z,15.72
2017-06-04T02:55:03.993Z,15.63
2017-06-04T02:56:05.262Z,15.66
2017-06-04T02:57:06.481Z,15.61
2017-06-04T02:58:07.738Z,15.61
2017-06-04T02:59:08.990Z,15.67
2017-06-04T03:00:10.268Z,15.52
2017-06-04T03:01:11.497Z,15.49
2017-06-04T03:02:12.749Z,15.61
2017-06-04T03:03:13.993Z,15.54
2017-06-04T03:04:15.275Z,15.49
2017-06-04T03:05:16.531Z,15.49
2017-06-04T03:06:17.790Z,15.52
2017-06-04T03:07:19.012Z,15.56
2017-06-04T03:08:20.265Z,15.49
2017-06-04T03:09:21.533Z,15.51
2017-06-04T03:10:22.830Z,15.48
2017-06-04T03:11:24.077Z,15.51
2017-06-04T03:12:25.314Z,15.54
2017-06-04T03:13:26.555Z,15.46
2017-06-04T03:14:27.792Z,15.45
2017-06-04T03:15:29.092Z,15.45
2017-06-04T03:16:30.395Z,15.42
2017-06-04T03:17:31.636Z,15.52
2017-06-04T03:18:32.891Z,15.48
2017-06-04T03:19:34.147Z,15.43
2017-06-04T03:20:35.397Z,15.51
2017-06-04T03:21:36.619Z,15.42
2017-06-04T03:22:38.062Z,15.48
2017-06-04T03:23:39.357Z,15.42
2017-06-04T03:24:40.704Z,15.51
2017-06-04T03:25:41.937Z,15.52
2017-06-04T03:26:43.190Z,15.49
2017-06-04T03:27:44.439Z,15.49
2017-06-04T03:28:45.690Z,15.52
2017-06-04T03:29:46.987Z,15.49
2017-06-04T03:30:48.234Z,15.46
2017-06-04T03:31:49.477Z,15.42
2017-06-04T03:32:50.715Z,15.54
2017-06-04T03:33:52.021Z,15.42
2017-06-04T03:34:53.379Z,15.46
2017-06-04T03:35:54.690Z,15.49
2017-06-04T03:36:55.910Z,15.45
2017-06-04T03:37:57.152Z,15.51
2017-06-04T03:38:58.460Z,15.6
2017-06-04T03:39:59.818Z,15.6
2017-06-04T03:41:01.166Z,15.56
2017-06-04T03:42:02.420Z,15.61
2017-06-04T03:43:03.715Z,15.63
2017-06-04T03:44:04.921Z,15.66
2017-06-04T03:45:06.259Z,15.68
2017-06-04T03:46:07.504Z,15.64
2017-06-04T03:47:08.851Z,15.66
2017-06-04T03:48:10.120Z,15.67
2017-06-04T03:49:11.365Z,15.66
2017-06-04T03:50:12.622Z,15.64
2017-06-04T03:51:13.880Z,15.63
2017-06-04T03:52:15.124Z,15.59
2017-06-04T03:53:16.363Z,15.63
2017-06-04T03:54:17.687Z,15.63
2017-06-04T03:55:18.901Z,15.6
2017-06-04T03:56:20.160Z,15.64
2017-06-04T03:57:21.427Z,15.6
2017-06-04T03:58:22.658Z,15.68
2017-06-04T03:59:23.911Z,15.61
2017-06-04T04:00:25.148Z,15.67
2017-06-04T04:01:26.395Z,15.66
2017-06-04T04:02:27.656Z,15.63
2017-06-04T04:03:29.001Z,15.66
2017-06-04T04:04:30.242Z,15.66
2017-06-04T04:05:31.500Z,15.63
2017-06-04T04:06:32.736Z,15.75
2017-06-04T04:07:33.979Z,15.66
2017-06-04T04:08:35.232Z,15.74
2017-06-04T04:09:36.576Z,15.72
2017-06-04T04:10:37.815Z,15.68
2017-06-04T04:11:39.046Z,15.64
2017-06-04T04:12:40.441Z,15.63
2017-06-04T04:13:41.674Z,15.72
2017-06-04T04:14:42.903Z,15.61
2017-06-04T04:15:44.150Z,15.7
2017-06-04T04:16:45.390Z,15.7
2017-06-04T04:17:46.621Z,15.74
2017-06-04T04:18:47.881Z,15.78
2017-06-04T04:19:49.114Z,15.75
2017-06-04T04:20:50.373Z,15.74
2017-06-04T04:21:51.607Z,15.76
2017-06-04T04:22:52.952Z,15.81
2017-06-04T04:23:54.212Z,15.88
2017-06-04T04:24:55.474Z,15.82
2017-06-04T04:25:56.790Z,15.82
2017-06-04T04:26:58.039Z,15.82
2017-06-04T04:27:59.288Z,15.92
2017-06-04T04:29:00.537Z,15.86
2017-06-04T04:30:01.915Z,15.94
2017-06-04T04:31:03.205Z,15.94
2017-06-04T04:32:04.465Z,15.94
2017-06-04T04:33:05.703Z,15.97
2017-06-04T04:34:06.941Z,15.96
2017-06-04T04:35:08.321Z,15.89
2017-06-04T04:36:09.605Z,15.94
2017-06-04T04:37:10.850Z,16
2017-06-04T04:38:12.088Z,16.03
2017-06-04T04:39:13.330Z,16.06
2017-06-04T04:40:14.696Z,16.06
2017-06-04T04:41:16.015Z,16.12
2017-06-04T04:42:17.320Z,16.16
2017-06-04T04:43:18.553Z,16.15
2017-06-04T04:44:19.802Z,16.12
2017-06-04T04:45:21.070Z,16.07
2017-06-04T04:46:22.336Z,16.09
2017-06-04T04:47:23.569Z,16.22
2017-06-04T04:48:24.822Z,16.2
2017-06-04T04:49:26.104Z,16.25
2017-06-04T04:50:27.367Z,16.25
2017-06-04T04:51:28.624Z,16.23
2017-06-04T04:52:29.882Z,16.25
2017-06-04T04:53:31.179Z,16.23
2017-06-04T04:54:32.432Z,16.31
2017-06-04T04:55:33.671Z,16.33
2017-06-04T04:56:34.914Z,16.35
2017-06-04T04:57:36.173Z,16.42
2017-06-04T04:58:37.403Z,16.49
2017-06-04T04:59:38.701Z,16.38
2017-06-04T05:00:39.961Z,16.44
2017-06-04T05:01:41.268Z,16.48
2017-06-04T05:02:42.565Z,16.55
2017-06-04T05:03:43.804Z,16.5
2017-06-04T05:04:45.052Z,16.49
2017-06-04T05:05:46.358Z,16.49
2017-06-04T05:06:47.617Z,16.49
2017-06-04T05:07:48.853Z,16.59
2017-06-04T05:08:50.095Z,16.59
2017-06-04T05:09:51.369Z,16.56
2017-06-04T05:10:52.660Z,16.58
2017-06-04T05:11:53.904Z,16.58
2017-06-04T05:12:55.151Z,16.73
2017-06-04T05:13:56.433Z,16.7
2017-06-04T05:14:57.777Z,16.7
2017-06-04T05:15:59.010Z,16.63
2017-06-04T05:17:00.279Z,16.7
2017-06-04T05:18:01.520Z,16.78
2017-06-04T05:19:02.807Z,16.81
2017-06-04T05:20:04.059Z,16.89
2017-06-04T05:21:05.285Z,16.86
2017-06-04T05:22:06.548Z,16.86
2017-06-04T05:23:07.777Z,16.96
2017-06-04T05:24:09.037Z,16.99
2017-06-04T05:25:10.259Z,17.07
2017-06-04T05:26:11.506Z,17.08
2017-06-04T05:27:13.007Z,17.06
2017-06-04T05:28:14.258Z,17.04
2017-06-04T05:29:15.498Z,17.03
2017-06-04T05:30:16.757Z,17.23
2017-06-04T05:31:18.045Z,17.13
2017-06-04T05:32:19.302Z,17.13
2017-06-04T05:33:20.572Z,17.29
2017-06-04T05:34:21.826Z,17.28
2017-06-04T05:35:23.058Z,17.32
2017-06-04T05:36:24.360Z,17.44
2017-06-04T05:37:25.600Z,17.51
2017-06-04T05:38:26.915Z,17.59
2017-06-04T05:39:28.146Z,17.62
2017-06-04T05:40:29.385Z,17.74
2017-06-04T05:41:30.642Z,17.79
2017-06-04T05:42:31.896Z,17.69
2017-06-04T05:43:33.212Z,17.82
2017-06-04T05:44:34.483Z,17.79
2017-06-04T05:45:35.764Z,17.84
2017-06-04T05:46:36.993Z,17.84
2017-06-04T05:47:38.228Z,17.95
2017-06-04T05:48:39.467Z,17.85
2017-06-04T05:49:40.718Z,17.85
2017-06-04T05:50:41.982Z,17.99
2017-06-04T05:51:43.224Z,18.07
2017-06-04T05:52:44.461Z,18.12
2017-06-04T05:53:45.710Z,18.15
2017-06-04T05:54:46.943Z,18.25
2017-06-04T05:55:48.208Z,18.33
2017-06-04T05:56:49.433Z,18.47
2017-06-04T05:57:50.846Z,18.46
2017-06-04T05:58:52.101Z,18.52
2017-06-04T05:59:53.348Z,18.65
2017-06-04T06:00:54.587Z,18.59
2017-06-04T06:01:55.852Z,18.65
2017-06-04T06:02:57.107Z,18.74
2017-06-04T06:03:58.378Z,18.7
2017-06-04T06:04:59.603Z,18.68
2017-06-04T06:06:00.866Z,18.76
2017-06-04T06:07:02.109Z,18.79
2017-06-04T06:08:03.354Z,18.77
2017-06-04T06:09:04.607Z,18.84
2017-06-04T06:10:06.006Z,18.91
2017-06-04T06:11:07.262Z,18.95
2017-06-04T06:12:08.515Z,19.01
2017-06-04T06:13:09.752Z,18.98
2017-06-04T06:14:11.102Z,19.06
2017-06-04T06:15:12.354Z,19.06
2017-06-04T06:16:13.599Z,19.11
2017-06-04T06:17:15.002Z,19.15
2017-06-04T06:18:16.252Z,19.2
2017-06-04T06:19:17.494Z,19.15
2017-06-04T06:20:18.968Z,19.15
2017-06-04T06:21:20.354Z,19.15
2017-06-04T06:22:21.609Z,19.05
2017-06-04T06:23:22.865Z,19.05
2017-06-04T06:24:24.106Z,19.1
2017-06-04T06:25:25.378Z,19.13
2017-06-04T06:26:26.630Z,19.02
2017-06-04T06:27:27.886Z,18.99
2017-06-04T06:28:29.138Z,19.02
2017-06-04T06:29:30.408Z,18.98
2017-06-04T06:30:31.652Z,19.08
2017-06-04T06:31:32.906Z,18.94
2017-06-04T06:32:34.244Z,19.02
2017-06-04T06:33:35.480Z,19.24
2017-06-04T06:34:36.784Z,19.31
2017-06-04T06:35:38.036Z,19.33
2017-06-04T06:36:39.279Z,19.36
2017-06-04T06:37:40.530Z,19.54
2017-06-04T06:38:41.797Z,19.7
2017-06-04T06:39:43.051Z,19.87
2017-06-04T06:40:44.380Z,20.05
2017-06-04T06:41:45.645Z,20.2
2017-06-04T06:42:46.972Z,20.41
2017-06-04T06:43:48.213Z,20.66
2017-06-04T06:44:49.467Z,20.76
2017-06-04T06:45:50.712Z,20.99
2017-06-04T06:46:51.982Z,21.08
2017-06-04T06:47:53.217Z,21.27
2017-06-04T06:48:54.472Z,21.53
2017-06-04T06:49:55.709Z,21.71
2017-06-04T06:50:57.059Z,21.91
2017-06-04T06:51:58.467Z,22.01
2017-06-04T06:52:59.710Z,22.25
2017-06-04T06:54:00.952Z,22.34
2017-06-04T06:55:02.196Z,22.37
2017-06-04T06:56:03.453Z,22.53
2017-06-04T06:57:04.865Z,22.64
2017-06-04T06:58:06.345Z,22.72
2017-06-04T06:59:07.628Z,22.68
2017-06-04T07:00:08.970Z,22.72
2017-06-04T07:01:10.506Z,22.74
2017-06-04T07:02:11.736Z,22.87
2017-06-04T07:03:13.093Z,22.97
2017-06-04T07:04:14.347Z,23.23
2017-06-04T07:05:15.602Z,23.43
2017-06-04T07:06:16.851Z,23.62
2017-06-04T07:07:18.100Z,23.76
2017-06-04T07:08:19.358Z,23.77
2017-06-04T07:09:20.624Z,23.92
2017-06-04T07:10:21.885Z,24.01
2017-06-04T07:11:23.137Z,24.13
2017-06-04T07:12:24.367Z,24.29
2017-06-04T07:13:25.614Z,24.39
2017-06-04T07:14:26.897Z,24.64
2017-06-04T07:15:28.212Z,24.97
2017-06-04T07:16:29.459Z,25.3
2017-06-04T07:17:30.718Z,25.5
2017-06-04T07:18:31.969Z,25.94
2017-06-04T07:19:33.226Z,26.55
2017-06-04T07:20:34.619Z,27.11
2017-06-04T07:21:35.856Z,27.42
2017-06-04T07:22:37.107Z,27.67
2017-06-04T07:23:38.348Z,27.73
2017-06-04T07:24:39.613Z,28.13
2017-06-04T07:25:40.929Z,28.26
2017-06-04T07:26:42.234Z,28.4
2017-06-04T07:27:43.484Z,28.35
2017-06-04T07:28:44.842Z,28.59
2017-06-04T07:29:46.102Z,28.9
2017-06-04T07:30:47.355Z,29.2
2017-06-04T07:31:48.825Z,29.7
2017-06-04T07:32:50.149Z,29.94
2017-06-04T07:33:51.364Z,30.14
2017-06-04T07:34:52.619Z,30.27
2017-06-04T07:35:53.896Z,30.24
2017-06-04T07:36:55.185Z,30.37
2017-06-04T07:37:56.475Z,30.37
2017-06-04T07:38:57.716Z,30.45
2017-06-04T07:39:58.988Z,30.38
2017-06-04T07:41:00.236Z,30.54
2017-06-04T07:42:01.497Z,30.8
2017-06-04T07:43:02.848Z,31.02
2017-06-04T07:44:04.107Z,31.26
2017-06-04T07:45:05.384Z,31.2
2017-06-04T07:46:06.650Z,31.27
2017-06-04T07:47:07.924Z,31.27
2017-06-04T07:48:09.169Z,31.2
2017-06-04T07:49:10.442Z,31.38
2017-06-04T07:50:11.745Z,31.53
2017-06-04T07:51:13.001Z,32
2017-06-04T07:52:14.257Z,32.32
2017-06-04T07:53:15.503Z,32.17
2017-06-04T07:54:16.767Z,32.22
2017-06-04T07:55:18.040Z,32.24
2017-06-04T07:56:19.289Z,32.29
2017-06-04T07:57:20.534Z,32.39
2017-06-04T07:58:21.801Z,32.92
2017-06-04T07:59:23.046Z,33.34
2017-06-04T08:00:24.341Z,33.39
2017-06-04T08:01:25.561Z,33.68
2017-06-04T08:02:26.816Z,34.08
2017-06-04T08:03:28.132Z,34.19
2017-06-04T08:04:29.364Z,33.83
2017-06-04T08:05:30.634Z,33.2
2017-06-04T08:06:31.905Z,33.29
2017-06-04T08:07:33.172Z,33.01
2017-06-04T08:08:34.420Z,32.93
2017-06-04T08:09:35.696Z,32.99
2017-06-04T08:10:37.078Z,33.14
2017-06-04T08:11:38.335Z,33.57
2017-06-04T08:12:39.585Z,34.01
2017-06-04T08:13:40.846Z,34.7
2017-06-04T08:14:42.136Z,34.74
2017-06-04T08:15:43.465Z,34.86
2017-06-04T08:16:44.741Z,34.07
2017-06-04T08:17:45.981Z,33.23
2017-06-04T08:18:47.222Z,33.13
2017-06-04T08:19:48.504Z,32.74
2017-06-04T08:20:49.760Z,32.73
2017-06-04T08:21:51.111Z,32.84
2017-06-04T08:22:52.342Z,32.76
2017-06-04T08:23:53.627Z,32.8
2017-06-04T08:24:54.904Z,33.15
2017-06-04T08:25:56.182Z,33.64
2017-06-04T08:26:57.456Z,33.89
2017-06-04T08:27:58.716Z,34.24
2017-06-04T08:28:59.998Z,33.86
2017-06-04T08:30:01.263Z,33.27
2017-06-04T08:31:02.566Z,33.3
2017-06-04T08:32:03.827Z,33.82
2017-06-04T08:33:05.140Z,33.98
2017-06-04T08:34:06.407Z,34.39
2017-06-04T08:35:07.695Z,34.64
2017-06-04T08:36:08.951Z,35.42
2017-06-04T08:37:10.338Z,35.97
2017-06-04T08:38:11.656Z,36.6
2017-06-04T08:39:12.909Z,36.92
2017-06-04T08:40:14.171Z,36.97
2017-06-04T08:41:15.436Z,36.99
2017-06-04T08:42:16.701Z,37.23
2017-06-04T08:43:17.926Z,37.36
2017-06-04T08:44:19.189Z,37.66
2017-06-04T08:45:20.455Z,38.03
2017-06-04T08:46:21.713Z,38.36
2017-06-04T08:47:23.061Z,38.45
2017-06-04T08:48:24.334Z,38.53
2017-06-04T08:49:25.588Z,38.49
2017-06-04T08:50:26.847Z,38.04
2017-06-04T08:51:28.276Z,37.59
2017-06-04T08:52:29.467Z,37.61
2017-06-04T08:53:30.753Z,37.58
2017-06-04T08:54:32.030Z,37.58
2017-06-04T08:55:33.311Z,37.64
2017-06-04T08:56:34.655Z,37.55
2017-06-04T08:57:35.927Z,37.02
2017-06-04T08:58:37.213Z,35.88
2017-06-04T08:59:38.475Z,34.88
2017-06-04T09:00:39.738Z,34.22
2017-06-04T09:01:41.074Z,33.37
2017-06-04T09:02:42.385Z,33.23
2017-06-04T09:03:43.628Z,33.58
2017-06-04T09:04:44.908Z,34
2017-06-04T09:05:46.163Z,34.89
2017-06-04T09:06:47.424Z,35.45
2017-06-04T09:07:48.687Z,35.77
2017-06-04T09:08:49.948Z,35.58
2017-06-04T09:09:51.243Z,35.5
2017-06-04T09:10:52.590Z,34.95
2017-06-04T09:11:53.853Z,33.95
2017-06-04T09:12:55.215Z,33.07
2017-06-04T09:13:56.535Z,32.91
2017-06-04T09:14:57.776Z,32.99
2017-06-04T09:15:59.031Z,33.49
2017-06-04T09:17:00.293Z,33.68
2017-06-04T09:18:01.557Z,33.78
2017-06-04T09:19:02.830Z,33.27
2017-06-04T09:20:04.098Z,32.76
2017-06-04T09:21:05.390Z,31.92
2017-06-04T09:22:06.664Z,31.53
2017-06-04T09:23:07.921Z,31.75
2017-06-04T09:24:09.189Z,32.42
2017-06-04T09:25:10.437Z,32.99
2017-06-04T09:26:11.685Z,33.61
2017-06-04T09:27:12.981Z,34.07
2017-06-04T09:28:14.248Z,34.13
2017-06-04T09:29:15.519Z,33.78
2017-06-04T09:30:16.770Z,32.98
2017-06-04T09:31:18.040Z,32.91
2017-06-04T09:32:19.319Z,33.1
2017-06-04T09:33:20.699Z,33.31
2017-06-04T09:34:22.078Z,33.78
2017-06-04T09:35:23.331Z,34.61
2017-06-04T09:36:24.605Z,35.67
2017-06-04T09:37:25.849Z,36.24
2017-06-04T09:38:27.116Z,36.63
2017-06-04T09:39:28.414Z,37.05
2017-06-04T09:40:29.668Z,37.07
2017-06-04T09:41:30.929Z,37.21
2017-06-04T09:42:32.193Z,37.54
2017-06-04T09:43:33.453Z,38.04
2017-06-04T09:44:34.822Z,38.6
2017-06-04T09:45:36.111Z,38.92
2017-06-04T09:46:37.411Z,38.64
2017-06-04T09:47:38.677Z,37.74
2017-06-04T09:48:39.964Z,36.79
2017-06-04T09:49:41.281Z,35.79
2017-06-04T09:50:42.653Z,35.29
2017-06-04T09:51:44.063Z,35.15
2017-06-04T09:52:45.206Z,34.41
2017-06-04T09:53:46.487Z,33.71
2017-06-04T09:54:47.776Z,33.08
2017-06-04T09:55:49.053Z,32.33
2017-06-04T09:56:50.422Z,32.05
2017-06-04T09:57:51.711Z,32.47
2017-06-04T09:58:52.936Z,33.07
2017-06-04T09:59:54.211Z,33.49
2017-06-04T10:00:55.472Z,33.63
2017-06-04T10:01:56.736Z,33.78
2017-06-04T10:02:58.011Z,34.2
2017-06-04T10:03:59.267Z,34.6
2017-06-04T10:05:00.517Z,34.99
2017-06-04T10:06:01.800Z,35.17
2017-06-04T10:07:03.138Z,34.77
2017-06-04T10:08:04.637Z,34.08
2017-06-04T10:09:06.028Z,33.43
2017-06-04T10:10:07.277Z,32.48
2017-06-04T10:11:08.586Z,31.95
2017-06-04T10:12:09.845Z,32.06
2017-06-04T10:13:11.095Z,32.25
2017-06-04T10:14:12.415Z,32.35
2017-06-04T10:15:13.653Z,32.35
2017-06-04T10:16:14.943Z,32.11
2017-06-04T10:17:16.219Z,31.6
2017-06-04T10:18:17.503Z,31.09
2017-06-04T10:19:18.772Z,30.67
2017-06-04T10:20:20.129Z,30.33
2017-06-04T10:21:21.376Z,29.87
2017-06-04T10:22:22.630Z,29.43
2017-06-04T10:23:23.877Z,29.1
2017-06-04T10:24:25.184Z,28.78
2017-06-04T10:25:26.523Z,28.9
2017-06-04T10:26:27.790Z,29.28
2017-06-04T10:27:29.040Z,29.99
2017-06-04T10:28:30.328Z,30.78
2017-06-04T10:29:31.624Z,31.6
2017-06-04T10:30:32.919Z,32.1
2017-06-04T10:31:34.221Z,32.52
2017-06-04T10:32:35.468Z,32.25
2017-06-04T10:33:36.713Z,32.14
2017-06-04T10:34:37.986Z,32.32
2017-06-04T10:35:39.243Z,32.13
2017-06-04T10:36:40.525Z,31.75
2017-06-04T10:37:41.795Z,32
2017-06-04T10:38:43.104Z,32.14
2017-06-04T10:39:44.349Z,31.96
2017-06-04T10:40:45.604Z,31.77
2017-06-04T10:41:46.873Z,31.54
2017-06-04T10:42:48.122Z,31.3
2017-06-04T10:43:49.398Z,31.48
2017-06-04T10:44:50.662Z,31.39
2017-06-04T10:45:51.913Z,31.15
2017-06-04T10:46:53.166Z,30.5
2017-06-04T10:47:54.450Z,30.03
2017-06-04T10:48:55.708Z,29.55
2017-06-04T10:49:57.020Z,29.15
2017-06-04T10:50:58.269Z,28.66
2017-06-04T10:51:59.519Z,28.54
2017-06-04T10:53:00.804Z,28.59
2017-06-04T10:54:02.063Z,28.38
2017-06-04T10:55:03.401Z,28.04
2017-06-04T10:56:04.651Z,27.7
2017-06-04T10:57:05.935Z,27.5
2017-06-04T10:58:07.198Z,27.38
2017-06-04T10:59:08.477Z,27.14
2017-06-04T11:00:09.740Z,27.13
2017-06-04T11:01:10.976Z,26.98
2017-06-04T11:02:12.339Z,26.8
2017-06-04T11:03:13.525Z,26.59
2017-06-04T11:04:14.782Z,26.65
2017-06-04T11:05:16.045Z,26.68
2017-06-04T11:06:17.304Z,26.67
2017-06-04T11:07:18.571Z,26.64
2017-06-04T11:08:19.814Z,26.57
2017-06-04T11:09:21.077Z,26.58
2017-06-04T11:10:22.330Z,26.74
2017-06-04T11:11:23.596Z,26.86
2017-06-04T11:12:24.862Z,27.01
2017-06-04T11:13:26.115Z,27.13
2017-06-04T11:14:27.490Z,27.19
2017-06-04T11:15:28.754Z,27.17
2017-06-04T11:16:30.000Z,27.11
2017-06-04T11:17:31.268Z,27.01
2017-06-04T11:18:32.518Z,26.86
2017-06-04T11:19:33.772Z,26.79
2017-06-04T11:20:35.150Z,26.72
2017-06-04T11:21:36.395Z,26.72
2017-06-04T11:22:37.645Z,26.49
2017-06-04T11:23:38.994Z,26.58
2017-06-04T11:24:40.263Z,26.44
2017-06-04T11:25:41.543Z,26.39
2017-06-04T11:26:42.918Z,26.29
2017-06-04T11:27:44.184Z,26.31
2017-06-04T11:28:45.442Z,26.35
2017-06-04T11:29:46.701Z,26.44
2017-06-04T11:30:47.949Z,26.46
2017-06-04T11:31:49.279Z,26.27
2017-06-04T11:32:50.568Z,26.25
2017-06-04T11:33:51.940Z,26.21
2017-06-04T11:34:53.082Z,26.04
2017-06-04T11:35:54.342Z,25.99
2017-06-04T11:36:55.582Z,25.72
2017-06-04T11:37:56.846Z,25.65
2017-06-04T11:38:58.105Z,25.72
2017-06-04T11:39:59.390Z,25.65
2017-06-04T11:41:00.628Z,25.57
2017-06-04T11:42:01.880Z,25.5
2017-06-04T11:43:03.227Z,25.5
2017-06-04T11:44:04.632Z,25.32
2017-06-04T11:45:05.881Z,25.27
2017-06-04T11:46:07.188Z,25.32
2017-06-04T11:47:08.461Z,25.15
2017-06-04T11:48:09.698Z,25.06
2017-06-04T11:49:11.025Z,25
2017-06-04T11:50:12.325Z,24.8
2017-06-04T11:51:13.581Z,24.73
2017-06-04T11:52:14.804Z,24.52
2017-06-04T11:53:16.053Z,24.41
2017-06-04T11:54:17.370Z,24.22
2017-06-04T11:55:18.636Z,24.07
2017-06-04T11:56:19.888Z,24.04
2017-06-04T11:57:21.203Z,24.13
2017-06-04T11:58:22.441Z,24.01
2017-06-04T11:59:23.703Z,23.89
2017-06-04T12:00:24.949Z,23.76
2017-06-04T12:01:26.255Z,23.71
2017-06-04T12:02:27.527Z,23.55
2017-06-04T12:03:28.787Z,23.49
2017-06-04T12:04:30.061Z,23.35
2017-06-04T12:05:31.291Z,23.27
2017-06-04T12:06:32.610Z,23.32
2017-06-04T12:07:33.891Z,23.32
2017-06-04T12:08:35.148Z,23.2
2017-06-04T12:09:36.418Z,23.12
2017-06-04T12:10:37.643Z,23.12
2017-06-04T12:11:38.904Z,23.14
2017-06-04T12:12:40.161Z,23.04
2017-06-04T12:13:41.414Z,23.01
2017-06-04T12:14:42.713Z,23.14
2017-06-04T12:15:43.964Z,23.38
2017-06-04T12:16:45.330Z,23.57
2017-06-04T12:17:46.581Z,23.7
2017-06-04T12:18:47.809Z,24.04
2017-06-04T12:19:49.078Z,24.24
2017-06-04T12:20:50.341Z,24.69
2017-06-04T12:21:51.594Z,24.9
2017-06-04T12:22:52.880Z,25.09
2017-06-04T12:23:54.154Z,25.3
2017-06-04T12:24:55.464Z,25.28
2017-06-04T12:25:56.804Z,25.39
2017-06-04T12:26:58.089Z,25.53
2017-06-04T12:27:59.354Z,25.72
2017-06-04T12:29:00.596Z,25.64
2017-06-04T12:30:01.840Z,25.57
2017-06-04T12:31:03.108Z,25.62
2017-06-04T12:32:04.353Z,25.67
2017-06-04T12:33:05.603Z,25.68
2017-06-04T12:34:06.855Z,25.77
2017-06-04T12:35:08.099Z,25.97
2017-06-04T12:36:09.351Z,25.87
2017-06-04T12:37:10.605Z,25.94
2017-06-04T12:38:11.865Z,25.99
2017-06-04T12:39:13.240Z,25.93
2017-06-04T12:40:14.485Z,25.89
2017-06-04T12:41:15.735Z,26.06
2017-06-04T12:42:17.033Z,26.17
2017-06-04T12:43:18.283Z,26.31
2017-06-04T12:44:19.681Z,26.42
2017-06-04T12:45:20.888Z,26.61
2017-06-04T12:46:22.141Z,26.74
2017-06-04T12:47:23.378Z,26.74
2017-06-04T12:48:24.627Z,26.72
2017-06-04T12:49:25.884Z,26.4
2017-06-04T12:50:27.199Z,26.37
2017-06-04T12:51:28.586Z,26.2
2017-06-04T12:52:29.725Z,26.08
2017-06-04T12:53:31.009Z,26.08
2017-06-04T12:54:32.241Z,26.09
2017-06-04T12:55:33.496Z,26.08
2017-06-04T12:56:34.745Z,26.18
2017-06-04T12:57:36.037Z,26.25
2017-06-04T12:58:37.281Z,26.12
2017-06-04T12:59:38.524Z,26.01
2017-06-04T13:00:39.795Z,26.02
2017-06-04T13:01:41.044Z,26.02
2017-06-04T13:02:42.297Z,26.02
2017-06-04T13:03:43.548Z,26.18
2017-06-04T13:04:44.913Z,26.04
2017-06-04T13:05:46.173Z,26.21
2017-06-04T13:06:47.417Z,26.2
2017-06-04T13:07:48.682Z,26.27
2017-06-04T13:08:49.931Z,26.35
2017-06-04T13:09:51.190Z,26.36
2017-06-04T13:10:52.468Z,26.35
2017-06-04T13:11:53.697Z,26.2
2017-06-04T13:12:54.994Z,26.05
2017-06-04T13:13:56.241Z,26.06
2017-06-04T13:14:57.532Z,25.94
2017-06-04T13:15:58.814Z,25.8